Sparta, WI

10:35 AM CDT on August 28, 2016 (GMT -0500)
Sparta-Fort McCoy

Weather History for KCMY - April, 2013

Change the Weather History Date:

Thursday, April 4, 2013

  Actual Average Record
Temperature  
Mean Temperature 42 °F -  
Max Temperature 50 °F 48 °F 73 °F (2005)
Min Temperature 32 °F 29 °F 10 °F (1975)
Degree Days  
Heating Degree Days 22    
Moisture  
Dew Point 25 °F    
Average Humidity 52    
Maximum Humidity 75    
Minimum Humidity 37    
Precipitation  
Precipitation 0.00 in - - ()
Sea Level Pressure  
Sea Level Pressure 30.08 in    
Wind  
Wind Speed 7 mph (West)    
Max Wind Speed 14 mph    
Max Gust Speed 21 mph    
Visibility 10 miles    
Events Rain    
Averages and records for this station are not official NWS values.
T = Trace of Precipitation, MM = Missing Value Source: NWS Daily Summary

Daily Weather History Graph

Daily Weather History Graph

Search for Another Location

Airport or City:

Trip Planner

Search our weather history database for the weather conditions in past years. The results will help you decide how hot, cold, wet, or windy it might be!

Date:

Astronomy

Apr. 04, 2013 Rise Set
Actual Time 6:38 AM CDT 7:33 PM CDT
Civil Twilight 6:09 AM CDT 8:03 PM CDT
Nautical Twilight 5:34 AM CDT 8:38 PM CDT
Astronomical Twilight 4:57 AM CDT 9:14 PM CDT
Moon 3:16 AM CDT (4/4) 1:41 PM CDT (4/4)
Length of Visible Light 13h 54m
Length of Day
12h 55m
Waning Crescent, 33% of the Moon is Illuminated
Apr 4
Waning Crescent
Apr 10
New
Apr 18
First Quarter
Apr 25
Full
May 2
Last Quarter

Hourly Weather History & Observations

Time (CDT) Temp. Windchill Dew Point Humidity Pressure Visibility Wind Dir Wind Speed Gust Speed Precip Events Conditions
12:15 AM 35.6 °F 29.2 °F 19.4 °F 52% 30.20 in 10.0 mi SSW 8.1 mph - N/A   Clear
12:35 AM 35.6 °F 30.7 °F 19.4 °F 52% 30.19 in 10.0 mi SSW 5.8 mph - N/A   Clear
12:55 AM 35.6 °F 29.9 °F 19.4 °F 52% 30.19 in 10.0 mi SSW 6.9 mph - N/A   Clear
1:15 AM 35.6 °F 31.7 °F 19.4 °F 52% 30.18 in 10.0 mi SW 4.6 mph - N/A   Clear
1:35 AM 35.6 °F 31.7 °F 19.4 °F 52% 30.18 in 10.0 mi SW 4.6 mph - N/A   Clear
1:55 AM 35.6 °F 31.7 °F 17.6 °F 48% 30.17 in 10.0 mi SW 4.6 mph - N/A   Clear
2:15 AM 35.6 °F 31.7 °F 17.6 °F 48% 30.16 in 10.0 mi SW 4.6 mph - N/A   Clear
2:35 AM 35.6 °F 30.7 °F 17.6 °F 48% 30.14 in 10.0 mi SSW 5.8 mph - N/A   Clear
2:55 AM 35.6 °F 31.7 °F 17.6 °F 48% 30.14 in 10.0 mi WSW 4.6 mph - N/A   Clear
3:15 AM 35.6 °F 32.8 °F 17.6 °F 48% 30.13 in 10.0 mi WSW 3.5 mph - N/A   Clear
3:35 AM 35.6 °F 32.8 °F 17.6 °F 48% 30.13 in 10.0 mi SW 3.5 mph - N/A   Clear
3:55 AM 35.6 °F 30.7 °F 17.6 °F 48% 30.13 in 10.0 mi SSW 5.8 mph - N/A   Clear
4:15 AM 35.6 °F 30.7 °F 17.6 °F 48% 30.13 in 10.0 mi SSW 5.8 mph - N/A   Clear
4:35 AM 35.6 °F 30.7 °F 17.6 °F 48% 30.13 in 10.0 mi SW 5.8 mph - N/A   Clear
4:55 AM 35.6 °F 32.8 °F 17.6 °F 48% 30.12 in 10.0 mi SSW 3.5 mph - N/A   Clear
5:15 AM 35.6 °F 30.7 °F 17.6 °F 48% 30.12 in 10.0 mi SSW 5.8 mph - N/A   Clear
5:35 AM 35.6 °F 30.7 °F 17.6 °F 48% 30.11 in 10.0 mi SSW 5.8 mph - N/A   Clear
5:55 AM 35.6 °F 31.7 °F 17.6 °F 48% 30.10 in 10.0 mi SW 4.6 mph - N/A   Clear
6:15 AM 35.6 °F 31.7 °F 17.6 °F 48% 30.10 in 10.0 mi SSW 4.6 mph - N/A   Clear
6:35 AM 35.6 °F 32.8 °F 19.4 °F 52% 30.09 in 10.0 mi SSW 3.5 mph - N/A   Clear
6:55 AM 35.6 °F 32.8 °F 19.4 °F 52% 30.09 in 10.0 mi SW 3.5 mph - N/A   Clear
7:15 AM 37.4 °F 34.9 °F 19.4 °F 48% 30.09 in 10.0 mi SSW 3.5 mph - N/A   Clear
7:35 AM 37.4 °F 32.1 °F 19.4 °F 48% 30.09 in 10.0 mi SW 6.9 mph - N/A   Clear
7:55 AM 37.4 °F 33.8 °F 19.4 °F 48% 30.08 in 10.0 mi SW 4.6 mph - N/A   Clear
8:15 AM 39.2 °F 35.9 °F 19.4 °F 45% 30.08 in 10.0 mi SSW 4.6 mph - N/A   Clear
8:35 AM 41.0 °F 35.8 °F 19.4 °F 42% 30.07 in 10.0 mi SW 8.1 mph - N/A   Clear
8:55 AM 42.8 °F 40.1 °F 21.2 °F 42% 30.07 in 10.0 mi SW 4.6 mph - N/A   Clear
9:15 AM 42.8 °F 38.6 °F 21.2 °F 42% 30.07 in 10.0 mi West 6.9 mph - N/A   Clear
9:35 AM 44.6 °F 39.7 °F 23.0 °F 43% 30.06 in 10.0 mi West 9.2 mph 16.1 mph N/A   Clear
9:55 AM 44.6 °F 38.1 °F 23.0 °F 43% 30.05 in 10.0 mi WSW 13.8 mph 19.6 mph N/A   Clear
10:15 AM 46.4 °F 41.1 °F 24.8 °F 43% 30.05 in 10.0 mi West 11.5 mph 18.4 mph N/A   Clear
10:35 AM 46.4 °F 41.1 °F 24.8 °F 43% 30.05 in 10.0 mi West 11.5 mph 19.6 mph N/A   Clear
10:55 AM 44.6 °F 39.7 °F 26.6 °F 49% 30.04 in 10.0 mi WSW 9.2 mph 19.6 mph N/A   Clear
11:35 AM 46.4 °F 41.1 °F 26.6 °F 46% 30.04 in 10.0 mi West 11.5 mph 18.4 mph N/A   Clear
11:55 AM 44.6 °F 40.7 °F 32.0 °F 61% 30.03 in 10.0 mi WSW 6.9 mph 16.1 mph N/A Rain Light Rain
12:15 PM 42.8 °F 37.5 °F 33.8 °F 70% 30.04 in 10.0 mi West 9.2 mph - N/A Rain Light Rain
12:35 PM 44.6 °F 39.2 °F 33.8 °F 66% 30.04 in 10.0 mi WNW 10.4 mph 16.1 mph N/A   Clear
12:55 PM 44.6 °F 43.1 °F 32.0 °F 61% 30.03 in 10.0 mi West 3.5 mph - N/A   Scattered Clouds
1:15 PM 46.4 °F 41.5 °F 32.0 °F 57% 30.03 in 10.0 mi West 10.4 mph - N/A   Scattered Clouds
1:35 PM 46.4 °F 41.5 °F 33.8 °F 62% 30.03 in 10.0 mi West 10.4 mph 16.1 mph N/A   Scattered Clouds
1:55 PM 50.0 °F - 33.8 °F 54% 30.02 in 10.0 mi WNW 9.2 mph - N/A   Scattered Clouds
2:15 PM 50.0 °F - 32.0 °F 50% 30.02 in 10.0 mi WNW 10.4 mph 18.4 mph N/A   Clear
2:35 PM 48.2 °F - 32.0 °F 54% 30.02 in 10.0 mi West 9.2 mph 19.6 mph N/A   Clear
2:55 PM 50.0 °F - 32.0 °F 50% 30.02 in 10.0 mi West 10.4 mph 17.3 mph N/A   Clear
3:15 PM 50.0 °F - 32.0 °F 50% 30.02 in 10.0 mi WNW 8.1 mph 17.3 mph N/A   Clear
3:35 PM 50.0 °F - 32.0 °F 50% 30.01 in 10.0 mi West 9.2 mph - N/A   Clear
3:55 PM 50.0 °F - 32.0 °F 50% 30.01 in 10.0 mi WNW 8.1 mph 19.6 mph N/A   Clear
4:15 PM 50.0 °F - 32.0 °F 50% 30.01 in 10.0 mi WNW 10.4 mph - N/A   Clear
4:35 PM 50.0 °F - 30.2 °F 47% 30.01 in 10.0 mi WNW 9.2 mph - N/A   Clear
4:55 PM 50.0 °F - 28.4 °F 43% 30.01 in 10.0 mi NW 13.8 mph 20.7 mph N/A   Clear
5:15 PM 50.0 °F - 28.4 °F 43% 30.02 in 10.0 mi NNW 11.5 mph 17.3 mph N/A   Clear
5:35 PM 50.0 °F - 28.4 °F 43% 30.02 in 10.0 mi NW 9.2 mph 17.3 mph N/A   Clear
5:55 PM 50.0 °F - 24.8 °F 37% 30.03 in 10.0 mi NW 11.5 mph - N/A   Clear
6:15 PM 48.2 °F - 26.6 °F 43% 30.03 in 10.0 mi NW 12.7 mph 17.3 mph N/A   Clear
6:35 PM 46.4 °F 41.5 °F 28.4 °F 50% 30.03 in 10.0 mi WNW 10.4 mph - N/A   Clear
6:55 PM 46.4 °F 41.9 °F 28.4 °F 50% 30.04 in 10.0 mi WNW 9.2 mph - N/A   Clear
7:15 PM 44.6 °F 40.7 °F 28.4 °F 53% 30.04 in 10.0 mi NW 6.9 mph - N/A   Clear
7:35 PM 42.8 °F 38.6 °F 28.4 °F 57% 30.04 in 10.0 mi WNW 6.9 mph - N/A   Clear
7:55 PM 42.8 °F 39.3 °F 28.4 °F 57% 30.05 in 10.0 mi WNW 5.8 mph - N/A   Clear
8:15 PM 41.0 °F 37.1 °F 28.4 °F 61% 30.05 in 10.0 mi WNW 5.8 mph - N/A   Clear
8:35 PM 41.0 °F 38.0 °F 28.4 °F 61% 30.06 in 10.0 mi WNW 4.6 mph - N/A   Clear
8:55 PM 41.0 °F 39.0 °F 26.6 °F 57% 30.07 in 10.0 mi WNW 3.5 mph - N/A   Clear
9:15 PM 37.4 °F - 26.6 °F 65% 30.08 in 10.0 mi Calm Calm - N/A   Clear
9:35 PM 35.6 °F 32.8 °F 26.6 °F 70% 30.08 in 10.0 mi WNW 3.5 mph - N/A   Clear
9:55 PM 37.4 °F 33.8 °F 26.6 °F 65% 30.08 in 10.0 mi WNW 4.6 mph - N/A   Clear
10:15 PM 37.4 °F 34.9 °F 26.6 °F 65% 30.09 in 10.0 mi WNW 3.5 mph - N/A   Clear
10:35 PM 37.4 °F 32.1 °F 26.6 °F 65% 30.10 in 10.0 mi NW 6.9 mph - N/A   Clear
10:55 PM 37.4 °F 32.8 °F 26.6 °F 65% 30.10 in 10.0 mi NW 5.8 mph - N/A   Clear
11:15 PM 35.6 °F 32.8 °F 24.8 °F 65% 30.10 in 10.0 mi WNW 3.5 mph - N/A   Clear
11:35 PM 35.6 °F - 24.8 °F 65% 30.10 in 10.0 mi Calm Calm - N/A   Clear
11:55 PM 32.0 °F - 24.8 °F 75% 30.11 in 10.0 mi Calm Calm - N/A   Clear